Weather at Flying Cap Valley Airport [CLOSED]

Public forecast

Using degrees Fahrenheit for public forecast. Weather courtesy of forecast.io.

Closest aviation weather report (METAR) to Flying Cap Valley Airport

Closest report is Dallas Fort Worth International Airport, 5.5 nm (10.1 km) ESE.

2024/04/22 04:53 (retrieved 1 hour ago)

KDFW 220453Z 00000KT 10SM CLR 13/06 A3025 RMK AO2 SLP242 T01330061

Closest aviation forecast (TAF) to Flying Cap Valley Airport

Forecast is more than 6 hours old.

Closest forecast is Dyess Air Force Base, 140.9 nm (260.9 km) WSW.

2024/04/21 22:14 Ammendment (retrieved 8 hours ago)

TAF AMD KDYS 212200Z 2122/2222 05012KT 9999 FEW050 SCT080 QNH3024INS BECMG 2200/2201 VRB06KT 9999 SCT050 QNH3022INS BECMG 2214/2215 17012G18KT 9999 SCT050 QNH3004INS BECMG 2221/2222 18015G25KT 9999 SCT080 QNH3002INS TX19/2122Z TN07/2212Z LAST NO AMDS AFT 2122 NEXT 2211